sensor_id;sensor_type;location;lat;lon;timestamp;temperature;humidity
14893;DHT22;7538;53.626;9.906;2023-03-31T00:01:04;12.10;99.90
14893;DHT22;7538;53.626;9.906;2023-03-31T00:03:31;12.10;99.90
14893;DHT22;7538;53.626;9.906;2023-03-31T00:05:59;12.10;99.90
14893;DHT22;7538;53.626;9.906;2023-03-31T00:08:28;12.10;99.90
14893;DHT22;7538;53.626;9.906;2023-03-31T00:11:02;12.10;99.90
14893;DHT22;7538;53.626;9.906;2023-03-31T00:13:29;12.10;99.90
14893;DHT22;7538;53.626;9.906;2023-03-31T00:15:57;12.10;99.90
14893;DHT22;7538;53.626;9.906;2023-03-31T00:18:24;12.10;99.90
14893;DHT22;7538;53.626;9.906;2023-03-31T00:20:52;12.10;99.90
14893;DHT22;7538;53.626;9.906;2023-03-31T00:23:19;12.00;99.90
14893;DHT22;7538;53.626;9.906;2023-03-31T00:25:53;12.00;99.90
14893;DHT22;7538;53.626;9.906;2023-03-31T00:28:21;12.00;99.90
14893;DHT22;7538;53.626;9.906;2023-03-31T00:30:48;12.00;99.90
14893;DHT22;7538;53.626;9.906;2023-03-31T00:33:16;12.00;99.90
14893;DHT22;7538;53.626;9.906;2023-03-31T00:35:42;12.00;99.90
14893;DHT22;7538;53.626;9.906;2023-03-31T00:38:10;11.90;99.90
14893;DHT22;7538;53.626;9.906;2023-03-31T00:40:44;11.90;99.90
14893;DHT22;7538;53.626;9.906;2023-03-31T00:43:25;11.80;99.90
14893;DHT22;7538;53.626;9.906;2023-03-31T00:45:54;11.80;99.90
14893;DHT22;7538;53.626;9.906;2023-03-31T00:48:21;11.80;99.90
14893;DHT22;7538;53.626;9.906;2023-03-31T00:50:52;11.80;99.90
14893;DHT22;7538;53.626;9.906;2023-03-31T00:53:23;11.80;99.90
14893;DHT22;7538;53.626;9.906;2023-03-31T00:55:53;11.70;99.90
14893;DHT22;7538;53.626;9.906;2023-03-31T00:58:22;11.70;99.90
14893;DHT22;7538;53.626;9.906;2023-03-31T01:00:56;11.70;99.90
14893;DHT22;7538;53.626;9.906;2023-03-31T01:03:23;11.70;99.90
14893;DHT22;7538;53.626;9.906;2023-03-31T01:05:53;11.70;99.90
14893;DHT22;7538;53.626;9.906;2023-03-31T01:08:23;11.70;99.90
14893;DHT22;7538;53.626;9.906;2023-03-31T01:10:53;11.80;99.90
14893;DHT22;7538;53.626;9.906;2023-03-31T01:13:20;11.80;99.90
14893;DHT22;7538;53.626;9.906;2023-03-31T01:15:48;11.80;99.90
14893;DHT22;7538;53.626;9.906;2023-03-31T01:18:17;11.80;99.90
14893;DHT22;7538;53.626;9.906;2023-03-31T01:21:05;11.80;99.90
14893;DHT22;7538;53.626;9.906;2023-03-31T01:24:07;11.80;99.90
14893;DHT22;7538;53.626;9.906;2023-03-31T01:26:52;11.80;99.90
14893;DHT22;7538;53.626;9.906;2023-03-31T01:29:57;11.80;99.90
14893;DHT22;7538;53.626;9.906;2023-03-31T01:32:55;11.80;99.90
14893;DHT22;7538;53.626;9.906;2023-03-31T01:35:44;11.80;99.90
14893;DHT22;7538;53.626;9.906;2023-03-31T01:38:39;11.80;99.90
14893;DHT22;7538;53.626;9.906;2023-03-31T01:41:22;11.80;99.90
14893;DHT22;7538;53.626;9.906;2023-03-31T01:43:56;11.80;99.90
14893;DHT22;7538;53.626;9.906;2023-03-31T01:46:28;11.80;99.90
14893;DHT22;7538;53.626;9.906;2023-03-31T01:49:00;11.80;99.90
14893;DHT22;7538;53.626;9.906;2023-03-31T01:51:36;11.80;99.90
14893;DHT22;7538;53.626;9.906;2023-03-31T01:54:16;11.90;99.90
14893;DHT22;7538;53.626;9.906;2023-03-31T01:56:50;11.90;99.90
14893;DHT22;7538;53.626;9.906;2023-03-31T01:59:23;11.90;99.90
14893;DHT22;7538;53.626;9.906;2023-03-31T02:01:56;8.30;99.90
14893;DHT22;7538;53.626;9.906;2023-03-31T02:04:28;11.90;99.90
14893;DHT22;7538;53.626;9.906;2023-03-31T02:07:01;11.90;99.90
14893;DHT22;7538;53.626;9.906;2023-03-31T02:09:33;11.90;99.90
14893;DHT22;7538;53.626;9.906;2023-03-31T02:12:04;11.90;99.90
14893;DHT22;7538;53.626;9.906;2023-03-31T02:14:32;11.90;99.90
14893;DHT22;7538;53.626;9.906;2023-03-31T02:17:01;11.90;99.90
14893;DHT22;7538;53.626;9.906;2023-03-31T02:19:32;12.00;99.90
14893;DHT22;7538;53.626;9.906;2023-03-31T02:22:02;12.00;99.90
14893;DHT22;7538;53.626;9.906;2023-03-31T02:24:30;12.00;99.90
14893;DHT22;7538;53.626;9.906;2023-03-31T02:27:04;12.00;99.90
14893;DHT22;7538;53.626;9.906;2023-03-31T02:29:32;11.90;99.90
14893;DHT22;7538;53.626;9.906;2023-03-31T02:32:03;11.90;99.90
14893;DHT22;7538;53.626;9.906;2023-03-31T02:34:34;11.90;99.90
14893;DHT22;7538;53.626;9.906;2023-03-31T02:37:01;11.90;99.90
14893;DHT22;7538;53.626;9.906;2023-03-31T02:39:30;11.90;99.90
14893;DHT22;7538;53.626;9.906;2023-03-31T02:41:59;11.90;99.90
14893;DHT22;7538;53.626;9.906;2023-03-31T02:44:32;11.90;99.90
14893;DHT22;7538;53.626;9.906;2023-03-31T02:47:00;11.90;99.90
14893;DHT22;7538;53.626;9.906;2023-03-31T02:49:27;11.90;99.90
14893;DHT22;7538;53.626;9.906;2023-03-31T02:52:16;11.90;99.90
14893;DHT22;7538;53.626;9.906;2023-03-31T02:55:02;11.90;99.90
14893;DHT22;7538;53.626;9.906;2023-03-31T02:57:43;11.90;99.90
14893;DHT22;7538;53.626;9.906;2023-03-31T03:00:22;11.90;99.90
14893;DHT22;7538;53.626;9.906;2023-03-31T03:03:04;11.90;99.90
14893;DHT22;7538;53.626;9.906;2023-03-31T03:05:40;11.80;99.90
14893;DHT22;7538;53.626;9.906;2023-03-31T03:08:20;11.80;99.90
14893;DHT22;7538;53.626;9.906;2023-03-31T03:11:00;11.80;99.90
14893;DHT22;7538;53.626;9.906;2023-03-31T03:13:34;11.80;99.90
14893;DHT22;7538;53.626;9.906;2023-03-31T03:16:08;11.70;99.90
14893;DHT22;7538;53.626;9.906;2023-03-31T03:18:38;11.70;99.90
14893;DHT22;7538;53.626;9.906;2023-03-31T03:21:05;11.70;99.90
14893;DHT22;7538;53.626;9.906;2023-03-31T03:23:32;11.70;99.90
14893;DHT22;7538;53.626;9.906;2023-03-31T03:25:58;11.70;99.90
14893;DHT22;7538;53.626;9.906;2023-03-31T03:28:25;11.70;99.90
14893;DHT22;7538;53.626;9.906;2023-03-31T03:30:52;11.70;99.90
14893;DHT22;7538;53.626;9.906;2023-03-31T03:33:20;11.60;99.90
14893;DHT22;7538;53.626;9.906;2023-03-31T03:35:49;11.60;99.90
14893;DHT22;7538;53.626;9.906;2023-03-31T03:38:16;11.60;99.90
14893;DHT22;7538;53.626;9.906;2023-03-31T03:40:43;11.60;99.90
14893;DHT22;7538;53.626;9.906;2023-03-31T03:43:09;11.60;99.90
14893;DHT22;7538;53.626;9.906;2023-03-31T03:45:36;11.60;99.90
14893;DHT22;7538;53.626;9.906;2023-03-31T03:48:03;11.60;99.90
14893;DHT22;7538;53.626;9.906;2023-03-31T03:50:35;11.60;99.90
14893;DHT22;7538;53.626;9.906;2023-03-31T03:53:02;11.60;99.90
14893;DHT22;7538;53.626;9.906;2023-03-31T03:55:29;11.60;99.90
14893;DHT22;7538;53.626;9.906;2023-03-31T03:57:56;11.60;99.90
14893;DHT22;7538;53.626;9.906;2023-03-31T04:00:23;11.60;99.90
14893;DHT22;7538;53.626;9.906;2023-03-31T04:02:50;11.60;99.90
14893;DHT22;7538;53.626;9.906;2023-03-31T04:05:16;11.60;99.90
14893;DHT22;7538;53.626;9.906;2023-03-31T04:07:45;11.60;99.90
14893;DHT22;7538;53.626;9.906;2023-03-31T04:10:12;11.60;99.90
14893;DHT22;7538;53.626;9.906;2023-03-31T04:12:39;11.60;99.90
14893;DHT22;7538;53.626;9.906;2023-03-31T04:15:06;11.70;99.90
14893;DHT22;7538;53.626;9.906;2023-03-31T04:17:33;11.70;99.90
14893;DHT22;7538;53.626;9.906;2023-03-31T04:20:02;10.40;99.90
14893;DHT22;7538;53.626;9.906;2023-03-31T04:22:33;11.90;99.90
14893;DHT22;7538;53.626;9.906;2023-03-31T04:25:08;11.70;99.90
14893;DHT22;7538;53.626;9.906;2023-03-31T04:27:39;11.70;99.90
14893;DHT22;7538;53.626;9.906;2023-03-31T04:30:12;11.70;99.90
14893;DHT22;7538;53.626;9.906;2023-03-31T04:32:47;11.70;99.90
14893;DHT22;7538;53.626;9.906;2023-03-31T04:35:15;11.70;99.90
14893;DHT22;7538;53.626;9.906;2023-03-31T04:37:42;11.70;99.90
14893;DHT22;7538;53.626;9.906;2023-03-31T04:40:10;11.70;99.90
14893;DHT22;7538;53.626;9.906;2023-03-31T04:42:37;11.70;99.90
14893;DHT22;7538;53.626;9.906;2023-03-31T04:45:05;11.70;99.90
14893;DHT22;7538;53.626;9.906;2023-03-31T04:47:32;11.70;99.90
14893;DHT22;7538;53.626;9.906;2023-03-31T04:49:58;11.70;99.90
14893;DHT22;7538;53.626;9.906;2023-03-31T04:52:25;10.00;99.90
14893;DHT22;7538;53.626;9.906;2023-03-31T04:54:52;11.70;99.90
14893;DHT22;7538;53.626;9.906;2023-03-31T04:57:20;11.70;99.90
14893;DHT22;7538;53.626;9.906;2023-03-31T04:59:47;11.70;99.90
14893;DHT22;7538;53.626;9.906;2023-03-31T05:02:14;11.70;99.90
14893;DHT22;7538;53.626;9.906;2023-03-31T05:04:48;11.70;99.90
14893;DHT22;7538;53.626;9.906;2023-03-31T05:07:15;11.70;99.90
14893;DHT22;7538;53.626;9.906;2023-03-31T05:09:42;11.70;99.90
14893;DHT22;7538;53.626;9.906;2023-03-31T05:12:09;11.70;99.90
14893;DHT22;7538;53.626;9.906;2023-03-31T05:14:37;11.70;99.90
14893;DHT22;7538;53.626;9.906;2023-03-31T05:17:04;11.70;99.90
14893;DHT22;7538;53.626;9.906;2023-03-31T05:19:31;11.70;99.90
14893;DHT22;7538;53.626;9.906;2023-03-31T05:21:57;11.70;99.90
14893;DHT22;7538;53.626;9.906;2023-03-31T05:24:24;13.70;99.90
14893;DHT22;7538;53.626;9.906;2023-03-31T05:26:53;11.80;99.90
14893;DHT22;7538;53.626;9.906;2023-03-31T05:29:20;11.70;99.90
14893;DHT22;7538;53.626;9.906;2023-03-31T05:31:49;11.80;99.90
14893;DHT22;7538;53.626;9.906;2023-03-31T05:34:17;11.80;99.90
14893;DHT22;7538;53.626;9.906;2023-03-31T05:36:44;11.80;99.90
14893;DHT22;7538;53.626;9.906;2023-03-31T05:39:12;11.80;99.90
14893;DHT22;7538;53.626;9.906;2023-03-31T05:41:40;11.80;99.90
14893;DHT22;7538;53.626;9.906;2023-03-31T05:44:06;11.90;99.90
14893;DHT22;7538;53.626;9.906;2023-03-31T05:46:33;11.90;99.90
14893;DHT22;7538;53.626;9.906;2023-03-31T05:49:02;11.90;99.90
14893;DHT22;7538;53.626;9.906;2023-03-31T05:51:28;12.00;99.90
14893;DHT22;7538;53.626;9.906;2023-03-31T05:53:55;12.00;99.90
14893;DHT22;7538;53.626;9.906;2023-03-31T05:56:23;12.00;99.90
14893;DHT22;7538;53.626;9.906;2023-03-31T05:58:52;12.10;99.90
14893;DHT22;7538;53.626;9.906;2023-03-31T06:01:18;12.20;99.90
14893;DHT22;7538;53.626;9.906;2023-03-31T06:03:47;12.20;99.90
14893;DHT22;7538;53.626;9.906;2023-03-31T06:06:16;12.30;99.90
14893;DHT22;7538;53.626;9.906;2023-03-31T06:08:44;12.40;99.90
14893;DHT22;7538;53.626;9.906;2023-03-31T06:11:13;12.40;99.90
14893;DHT22;7538;53.626;9.906;2023-03-31T06:13:41;12.40;99.90
14893;DHT22;7538;53.626;9.906;2023-03-31T06:16:10;12.50;99.90
14893;DHT22;7538;53.626;9.906;2023-03-31T06:18:38;12.60;99.90
14893;DHT22;7538;53.626;9.906;2023-03-31T06:21:06;12.60;99.90
14893;DHT22;7538;53.626;9.906;2023-03-31T06:23:34;12.70;99.90
14893;DHT22;7538;53.626;9.906;2023-03-31T06:26:02;12.70;99.90
14893;DHT22;7538;53.626;9.906;2023-03-31T06:28:29;12.80;99.90
14893;DHT22;7538;53.626;9.906;2023-03-31T06:31:01;12.90;99.90
14893;DHT22;7538;53.626;9.906;2023-03-31T06:33:28;12.90;99.90
14893;DHT22;7538;53.626;9.906;2023-03-31T06:35:55;12.90;99.90
14893;DHT22;7538;53.626;9.906;2023-03-31T06:38:22;12.90;99.90
14893;DHT22;7538;53.626;9.906;2023-03-31T06:40:50;12.90;99.90
14893;DHT22;7538;53.626;9.906;2023-03-31T06:43:17;13.00;99.90
14893;DHT22;7538;53.626;9.906;2023-03-31T06:45:44;13.00;99.90
14893;DHT22;7538;53.626;9.906;2023-03-31T06:48:10;13.00;99.90
14893;DHT22;7538;53.626;9.906;2023-03-31T06:50:37;13.10;99.90
14893;DHT22;7538;53.626;9.906;2023-03-31T06:53:05;13.20;99.90
14893;DHT22;7538;53.626;9.906;2023-03-31T06:55:32;13.20;99.90
14893;DHT22;7538;53.626;9.906;2023-03-31T06:58:00;11.80;99.90
14893;DHT22;7538;53.626;9.906;2023-03-31T07:00:27;13.40;99.90
14893;DHT22;7538;53.626;9.906;2023-03-31T07:02:54;13.40;99.90
14893;DHT22;7538;53.626;9.906;2023-03-31T07:05:21;13.60;99.90
14893;DHT22;7538;53.626;9.906;2023-03-31T07:07:52;13.60;99.90
14893;DHT22;7538;53.626;9.906;2023-03-31T07:10:19;13.60;99.90
14893;DHT22;7538;53.626;9.906;2023-03-31T07:12:46;13.60;99.90
14893;DHT22;7538;53.626;9.906;2023-03-31T07:15:14;13.60;99.90
14893;DHT22;7538;53.626;9.906;2023-03-31T07:17:41;13.70;99.90
14893;DHT22;7538;53.626;9.906;2023-03-31T07:20:09;13.70;99.90
14893;DHT22;7538;53.626;9.906;2023-03-31T07:22:39;13.70;99.90
14893;DHT22;7538;53.626;9.906;2023-03-31T07:25:07;13.80;99.90
14893;DHT22;7538;53.626;9.906;2023-03-31T07:27:34;13.80;99.90
14893;DHT22;7538;53.626;9.906;2023-03-31T07:30:01;13.90;99.90
14893;DHT22;7538;53.626;9.906;2023-03-31T07:32:29;13.90;99.90
14893;DHT22;7538;53.626;9.906;2023-03-31T07:34:57;14.00;99.90
14893;DHT22;7538;53.626;9.906;2023-03-31T07:37:24;14.00;99.90
14893;DHT22;7538;53.626;9.906;2023-03-31T07:39:51;14.20;99.90
14893;DHT22;7538;53.626;9.906;2023-03-31T07:42:18;14.30;99.90
14893;DHT22;7538;53.626;9.906;2023-03-31T07:44:45;14.50;99.90
14893;DHT22;7538;53.626;9.906;2023-03-31T07:47:11;14.60;99.90
14893;DHT22;7538;53.626;9.906;2023-03-31T07:49:40;14.60;99.90
14893;DHT22;7538;53.626;9.906;2023-03-31T07:52:06;14.70;99.90
14893;DHT22;7538;53.626;9.906;2023-03-31T07:54:33;14.70;99.90
14893;DHT22;7538;53.626;9.906;2023-03-31T07:57:00;14.70;99.90
14893;DHT22;7538;53.626;9.906;2023-03-31T07:59:30;14.70;99.90
14893;DHT22;7538;53.626;9.906;2023-03-31T08:01:56;14.60;99.90
14893;DHT22;7538;53.626;9.906;2023-03-31T08:04:23;14.60;99.90
14893;DHT22;7538;53.626;9.906;2023-03-31T08:06:51;14.60;99.90
14893;DHT22;7538;53.626;9.906;2023-03-31T08:09:18;14.60;99.90
14893;DHT22;7538;53.626;9.906;2023-03-31T08:11:46;14.50;99.90
14893;DHT22;7538;53.626;9.906;2023-03-31T08:14:13;14.50;99.90
14893;DHT22;7538;53.626;9.906;2023-03-31T08:16:40;14.50;99.90
14893;DHT22;7538;53.626;9.906;2023-03-31T08:19:07;14.40;99.90
14893;DHT22;7538;53.626;9.906;2023-03-31T08:21:34;14.30;99.90
14893;DHT22;7538;53.626;9.906;2023-03-31T08:24:02;14.30;99.90
14893;DHT22;7538;53.626;9.906;2023-03-31T08:26:30;14.30;99.90
14893;DHT22;7538;53.626;9.906;2023-03-31T08:28:57;14.20;99.90
14893;DHT22;7538;53.626;9.906;2023-03-31T08:31:24;14.20;99.90
14893;DHT22;7538;53.626;9.906;2023-03-31T08:33:53;14.10;99.90
14893;DHT22;7538;53.626;9.906;2023-03-31T08:36:20;14.10;99.90
14893;DHT22;7538;53.626;9.906;2023-03-31T08:38:47;14.10;99.90
14893;DHT22;7538;53.626;9.906;2023-03-31T08:41:32;14.00;99.90
14893;DHT22;7538;53.626;9.906;2023-03-31T08:44:04;16.70;99.90
14893;DHT22;7538;53.626;9.906;2023-03-31T08:46:33;13.90;99.90
14893;DHT22;7538;53.626;9.906;2023-03-31T08:49:02;13.90;99.90
14893;DHT22;7538;53.626;9.906;2023-03-31T08:51:32;13.80;99.90
14893;DHT22;7538;53.626;9.906;2023-03-31T08:54:03;13.90;99.90
14893;DHT22;7538;53.626;9.906;2023-03-31T08:56:35;13.80;99.90
14893;DHT22;7538;53.626;9.906;2023-03-31T08:59:04;13.80;99.90
14893;DHT22;7538;53.626;9.906;2023-03-31T09:01:36;13.80;99.90
14893;DHT22;7538;53.626;9.906;2023-03-31T09:04:23;13.70;99.90
14893;DHT22;7538;53.626;9.906;2023-03-31T09:06:57;13.70;99.90
14893;DHT22;7538;53.626;9.906;2023-03-31T09:09:34;13.70;99.90
14893;DHT22;7538;53.626;9.906;2023-03-31T09:12:10;13.70;99.90
14893;DHT22;7538;53.626;9.906;2023-03-31T09:14:41;13.70;99.90
14893;DHT22;7538;53.626;9.906;2023-03-31T09:17:19;13.60;99.90
14893;DHT22;7538;53.626;9.906;2023-03-31T09:19:49;13.60;99.90
14893;DHT22;7538;53.626;9.906;2023-03-31T09:22:20;13.60;99.90
14893;DHT22;7538;53.626;9.906;2023-03-31T09:24:53;13.60;99.90
14893;DHT22;7538;53.626;9.906;2023-03-31T09:27:23;13.60;99.90
14893;DHT22;7538;53.626;9.906;2023-03-31T09:29:55;13.70;99.90
14893;DHT22;7538;53.626;9.906;2023-03-31T09:32:27;13.70;99.90
14893;DHT22;7538;53.626;9.906;2023-03-31T09:34:58;13.80;99.90
14893;DHT22;7538;53.626;9.906;2023-03-31T09:37:30;13.70;99.90
14893;DHT22;7538;53.626;9.906;2023-03-31T09:39:59;13.80;99.90
14893;DHT22;7538;53.626;9.906;2023-03-31T09:42:27;13.90;99.90
14893;DHT22;7538;53.626;9.906;2023-03-31T09:44:54;13.80;99.90
14893;DHT22;7538;53.626;9.906;2023-03-31T09:47:30;13.80;99.90
14893;DHT22;7538;53.626;9.906;2023-03-31T09:49:57;13.80;99.90
14893;DHT22;7538;53.626;9.906;2023-03-31T09:52:28;13.80;99.90
14893;DHT22;7538;53.626;9.906;2023-03-31T09:54:58;13.90;99.90
14893;DHT22;7538;53.626;9.906;2023-03-31T09:57:28;13.90;99.90
14893;DHT22;7538;53.626;9.906;2023-03-31T10:00:02;13.90;99.90
14893;DHT22;7538;53.626;9.906;2023-03-31T10:02:35;14.00;99.90
14893;DHT22;7538;53.626;9.906;2023-03-31T10:05:03;14.10;99.90
14893;DHT22;7538;53.626;9.906;2023-03-31T10:07:32;14.20;99.90
14893;DHT22;7538;53.626;9.906;2023-03-31T10:09:59;14.30;99.90
14893;DHT22;7538;53.626;9.906;2023-03-31T10:12:29;14.30;99.90
14893;DHT22;7538;53.626;9.906;2023-03-31T10:15:13;14.40;99.90
14893;DHT22;7538;53.626;9.906;2023-03-31T10:17:43;14.50;99.90
14893;DHT22;7538;53.626;9.906;2023-03-31T10:20:19;14.40;99.90
14893;DHT22;7538;53.626;9.906;2023-03-31T10:22:46;14.50;99.90
14893;DHT22;7538;53.626;9.906;2023-03-31T10:25:22;14.40;99.90
14893;DHT22;7538;53.626;9.906;2023-03-31T10:27:53;14.30;99.90
14893;DHT22;7538;53.626;9.906;2023-03-31T10:30:22;11.90;99.90
14893;DHT22;7538;53.626;9.906;2023-03-31T10:32:50;14.30;99.90
14893;DHT22;7538;53.626;9.906;2023-03-31T10:35:23;14.30;99.90
14893;DHT22;7538;53.626;9.906;2023-03-31T10:37:55;14.30;99.90
14893;DHT22;7538;53.626;9.906;2023-03-31T10:40:25;14.30;99.90
14893;DHT22;7538;53.626;9.906;2023-03-31T10:43:03;14.10;99.90
14893;DHT22;7538;53.626;9.906;2023-03-31T10:45:36;14.10;99.90
14893;DHT22;7538;53.626;9.906;2023-03-31T10:48:04;14.10;99.90
14893;DHT22;7538;53.626;9.906;2023-03-31T10:50:34;14.10;99.90
14893;DHT22;7538;53.626;9.906;2023-03-31T10:53:03;14.20;99.90
14893;DHT22;7538;53.626;9.906;2023-03-31T10:55:37;14.50;99.90
14893;DHT22;7538;53.626;9.906;2023-03-31T10:58:16;14.70;99.90
14893;DHT22;7538;53.626;9.906;2023-03-31T11:00:57;14.80;99.90
14893;DHT22;7538;53.626;9.906;2023-03-31T11:03:45;14.90;99.90
14893;DHT22;7538;53.626;9.906;2023-03-31T11:06:20;15.10;99.90
14893;DHT22;7538;53.626;9.906;2023-03-31T11:08:54;15.10;99.90
14893;DHT22;7538;53.626;9.906;2023-03-31T11:11:40;15.10;99.90
14893;DHT22;7538;53.626;9.906;2023-03-31T11:14:16;15.30;99.90
14893;DHT22;7538;53.626;9.906;2023-03-31T11:16:48;15.30;99.90
14893;DHT22;7538;53.626;9.906;2023-03-31T11:19:27;15.20;99.90
14893;DHT22;7538;53.626;9.906;2023-03-31T11:22:00;15.20;99.90
14893;DHT22;7538;53.626;9.906;2023-03-31T11:24:53;15.20;99.90
14893;DHT22;7538;53.626;9.906;2023-03-31T11:27:35;15.00;99.90
14893;DHT22;7538;53.626;9.906;2023-03-31T11:30:13;15.00;99.90
14893;DHT22;7538;53.626;9.906;2023-03-31T11:33:00;15.10;99.90
14893;DHT22;7538;53.626;9.906;2023-03-31T11:35:42;15.20;99.90
14893;DHT22;7538;53.626;9.906;2023-03-31T11:38:24;15.10;99.90
14893;DHT22;7538;53.626;9.906;2023-03-31T11:40:58;14.80;99.90
14893;DHT22;7538;53.626;9.906;2023-03-31T11:43:29;14.60;99.90
14893;DHT22;7538;53.626;9.906;2023-03-31T11:46:02;14.40;99.90
14893;DHT22;7538;53.626;9.906;2023-03-31T11:48:39;14.40;99.90
14893;DHT22;7538;53.626;9.906;2023-03-31T11:51:13;14.40;99.90
14893;DHT22;7538;53.626;9.906;2023-03-31T11:53:44;14.40;99.90
14893;DHT22;7538;53.626;9.906;2023-03-31T11:56:13;14.30;99.90
14893;DHT22;7538;53.626;9.906;2023-03-31T11:58:43;14.20;99.90
14893;DHT22;7538;53.626;9.906;2023-03-31T12:01:19;14.10;99.90
14893;DHT22;7538;53.626;9.906;2023-03-31T12:03:53;13.90;99.90
14893;DHT22;7538;53.626;9.906;2023-03-31T12:06:24;13.60;99.90
14893;DHT22;7538;53.626;9.906;2023-03-31T12:09:09;13.10;99.90
14893;DHT22;7538;53.626;9.906;2023-03-31T12:11:43;12.70;99.90
14893;DHT22;7538;53.626;9.906;2023-03-31T12:14:26;12.50;99.90
14893;DHT22;7538;53.626;9.906;2023-03-31T12:16:57;12.50;99.90
14893;DHT22;7538;53.626;9.906;2023-03-31T12:19:27;12.50;99.90
14893;DHT22;7538;53.626;9.906;2023-03-31T12:21:59;12.40;99.90
14893;DHT22;7538;53.626;9.906;2023-03-31T12:24:29;12.40;99.90
14893;DHT22;7538;53.626;9.906;2023-03-31T12:27:04;12.30;99.90
14893;DHT22;7538;53.626;9.906;2023-03-31T12:29:33;12.30;99.90
14893;DHT22;7538;53.626;9.906;2023-03-31T12:32:06;12.20;99.90
14893;DHT22;7538;53.626;9.906;2023-03-31T12:34:38;12.20;99.90
14893;DHT22;7538;53.626;9.906;2023-03-31T12:37:29;12.30;99.90
14893;DHT22;7538;53.626;9.906;2023-03-31T12:40:06;12.30;99.90
14893;DHT22;7538;53.626;9.906;2023-03-31T12:42:57;12.30;99.90
14893;DHT22;7538;53.626;9.906;2023-03-31T12:45:27;12.30;99.90
14893;DHT22;7538;53.626;9.906;2023-03-31T12:48:25;12.40;99.90
14893;DHT22;7538;53.626;9.906;2023-03-31T12:51:06;12.40;99.90
14893;DHT22;7538;53.626;9.906;2023-03-31T12:53:38;12.40;99.90
14893;DHT22;7538;53.626;9.906;2023-03-31T12:56:10;12.40;99.90
14893;DHT22;7538;53.626;9.906;2023-03-31T12:58:39;12.40;99.90
14893;DHT22;7538;53.626;9.906;2023-03-31T13:01:11;12.30;99.90
14893;DHT22;7538;53.626;9.906;2023-03-31T13:03:53;12.30;99.90
14893;DHT22;7538;53.626;9.906;2023-03-31T13:06:45;9.70;99.90
14893;DHT22;7538;53.626;9.906;2023-03-31T13:09:41;12.20;99.90
14893;DHT22;7538;53.626;9.906;2023-03-31T13:12:14;12.20;99.90
14893;DHT22;7538;53.626;9.906;2023-03-31T13:14:43;12.30;99.90
14893;DHT22;7538;53.626;9.906;2023-03-31T13:19:56;12.50;99.90
14893;DHT22;7538;53.626;9.906;2023-03-31T13:22:42;12.80;99.90
14893;DHT22;7538;53.626;9.906;2023-03-31T13:25:33;12.90;99.90
14893;DHT22;7538;53.626;9.906;2023-03-31T13:30:52;13.30;99.90
14893;DHT22;7538;53.626;9.906;2023-03-31T13:33:27;13.40;99.90
14893;DHT22;7538;53.626;9.906;2023-03-31T13:36:14;13.30;99.90
14893;DHT22;7538;53.626;9.906;2023-03-31T13:38:52;13.20;99.90
14893;DHT22;7538;53.626;9.906;2023-03-31T13:41:35;13.40;99.90
14893;DHT22;7538;53.626;9.906;2023-03-31T13:44:42;13.40;99.90
14893;DHT22;7538;53.626;9.906;2023-03-31T13:47:33;13.60;99.90
14893;DHT22;7538;53.626;9.906;2023-03-31T13:50:20;13.70;99.90
14893;DHT22;7538;53.626;9.906;2023-03-31T13:52:57;13.70;99.90
14893;DHT22;7538;53.626;9.906;2023-03-31T13:55:51;13.80;99.90
14893;DHT22;7538;53.626;9.906;2023-03-31T13:58:46;13.90;99.90
14893;DHT22;7538;53.626;9.906;2023-03-31T14:01:44;14.10;99.90
14893;DHT22;7538;53.626;9.906;2023-03-31T14:07:14;12.00;99.90
14893;DHT22;7538;53.626;9.906;2023-03-31T14:09:44;13.90;99.90
14893;DHT22;7538;53.626;9.906;2023-03-31T14:12:22;13.80;99.90
14893;DHT22;7538;53.626;9.906;2023-03-31T14:14:54;13.90;99.90
14893;DHT22;7538;53.626;9.906;2023-03-31T14:17:24;14.00;99.90
14893;DHT22;7538;53.626;9.906;2023-03-31T14:20:02;14.00;99.90
14893;DHT22;7538;53.626;9.906;2023-03-31T14:22:43;13.90;99.90
14893;DHT22;7538;53.626;9.906;2023-03-31T14:25:19;14.00;99.90
14893;DHT22;7538;53.626;9.906;2023-03-31T14:27:54;14.00;99.90
14893;DHT22;7538;53.626;9.906;2023-03-31T14:30:32;14.20;99.90
14893;DHT22;7538;53.626;9.906;2023-03-31T14:33:12;14.30;99.90
14893;DHT22;7538;53.626;9.906;2023-03-31T14:35:47;14.40;99.90
14893;DHT22;7538;53.626;9.906;2023-03-31T14:38:19;14.50;99.90
14893;DHT22;7538;53.626;9.906;2023-03-31T14:40:51;14.40;99.90
14893;DHT22;7538;53.626;9.906;2023-03-31T14:43:22;14.50;99.90
14893;DHT22;7538;53.626;9.906;2023-03-31T14:45:57;14.50;99.90
14893;DHT22;7538;53.626;9.906;2023-03-31T14:48:26;14.60;99.90
14893;DHT22;7538;53.626;9.906;2023-03-31T14:50:56;14.60;99.90
14893;DHT22;7538;53.626;9.906;2023-03-31T14:53:24;14.70;99.90
14893;DHT22;7538;53.626;9.906;2023-03-31T14:55:58;14.80;99.90
14893;DHT22;7538;53.626;9.906;2023-03-31T14:58:28;15.00;99.90
14893;DHT22;7538;53.626;9.906;2023-03-31T15:00:56;15.10;99.90
14893;DHT22;7538;53.626;9.906;2023-03-31T15:03:24;15.30;99.90
14893;DHT22;7538;53.626;9.906;2023-03-31T15:05:55;15.40;99.90
14893;DHT22;7538;53.626;9.906;2023-03-31T15:08:23;15.40;99.90
14893;DHT22;7538;53.626;9.906;2023-03-31T15:10:55;15.50;99.90
14893;DHT22;7538;53.626;9.906;2023-03-31T15:13:29;15.60;99.90
14893;DHT22;7538;53.626;9.906;2023-03-31T15:15:58;16.10;99.90
14893;DHT22;7538;53.626;9.906;2023-03-31T15:18:26;15.30;99.90
14893;DHT22;7538;53.626;9.906;2023-03-31T15:20:53;15.60;99.90
14893;DHT22;7538;53.626;9.906;2023-03-31T15:23:22;15.40;99.90
14893;DHT22;7538;53.626;9.906;2023-03-31T15:25:52;15.20;99.90
14893;DHT22;7538;53.626;9.906;2023-03-31T15:28:24;15.00;99.90
14893;DHT22;7538;53.626;9.906;2023-03-31T15:30:53;14.80;99.90
14893;DHT22;7538;53.626;9.906;2023-03-31T15:33:22;14.60;99.90
14893;DHT22;7538;53.626;9.906;2023-03-31T15:35:50;14.50;99.90
14893;DHT22;7538;53.626;9.906;2023-03-31T15:38:17;14.40;99.90
14893;DHT22;7538;53.626;9.906;2023-03-31T15:40:48;14.30;99.90
14893;DHT22;7538;53.626;9.906;2023-03-31T15:43:20;14.30;99.90
14893;DHT22;7538;53.626;9.906;2023-03-31T15:45:54;14.20;99.90
14893;DHT22;7538;53.626;9.906;2023-03-31T15:48:24;14.10;99.90
14893;DHT22;7538;53.626;9.906;2023-03-31T15:50:58;14.10;99.90
14893;DHT22;7538;53.626;9.906;2023-03-31T15:53:28;14.10;99.90
14893;DHT22;7538;53.626;9.906;2023-03-31T15:55:57;14.10;99.90
14893;DHT22;7538;53.626;9.906;2023-03-31T16:01:31;14.20;99.90
14893;DHT22;7538;53.626;9.906;2023-03-31T16:04:01;14.20;99.90
14893;DHT22;7538;53.626;9.906;2023-03-31T16:06:36;14.30;99.90
14893;DHT22;7538;53.626;9.906;2023-03-31T16:09:06;14.30;99.90
14893;DHT22;7538;53.626;9.906;2023-03-31T16:11:37;14.30;99.90
14893;DHT22;7538;53.626;9.906;2023-03-31T16:14:10;14.30;99.90
14893;DHT22;7538;53.626;9.906;2023-03-31T16:16:44;14.20;99.90
14893;DHT22;7538;53.626;9.906;2023-03-31T16:19:12;13.40;99.90
14893;DHT22;7538;53.626;9.906;2023-03-31T16:21:42;14.10;99.90
14893;DHT22;7538;53.626;9.906;2023-03-31T16:24:09;14.10;99.90
14893;DHT22;7538;53.626;9.906;2023-03-31T16:26:37;14.20;99.90
14893;DHT22;7538;53.626;9.906;2023-03-31T16:29:04;14.20;99.90